createdAt,value
2022-10-12T00:02:27.990Z,8.37
2022-10-12T00:05:19.995Z,7.43
2022-10-12T00:08:09.011Z,8.27
2022-10-12T00:10:57.858Z,7.80
2022-10-12T00:13:46.742Z,8.60
2022-10-12T00:16:36.242Z,8.50
2022-10-12T00:19:25.181Z,8.33
2022-10-12T00:22:15.375Z,7.80
2022-10-12T00:25:04.243Z,7.80
2022-10-12T00:27:53.051Z,8.93
2022-10-12T00:30:42.354Z,9.33
2022-10-12T00:33:31.199Z,8.13
2022-10-12T00:36:22.106Z,8.23
2022-10-12T00:39:13.051Z,8.20
2022-10-12T00:42:01.854Z,10.43
2022-10-12T00:44:51.418Z,8.53
2022-10-12T00:47:43.120Z,8.00
2022-10-12T00:50:32.767Z,9.07
2022-10-12T00:53:23.858Z,9.40
2022-10-12T00:56:18.023Z,9.20
2022-10-12T00:59:08.638Z,8.93
2022-10-12T01:01:57.809Z,9.23
2022-10-12T01:04:46.931Z,10.10
2022-10-12T01:07:36.072Z,9.67
2022-10-12T01:10:25.075Z,10.40
2022-10-12T01:13:15.634Z,9.60
2022-10-12T01:16:07.368Z,10.60
2022-10-12T01:19:00.084Z,10.67
2022-10-12T01:21:53.027Z,10.70
2022-10-12T01:24:47.731Z,9.47
2022-10-12T01:27:41.191Z,10.00
2022-10-12T01:30:34.958Z,11.27
2022-10-12T01:33:26.869Z,10.80
2022-10-12T01:36:20.663Z,10.37
2022-10-12T01:39:14.034Z,10.37
2022-10-12T01:42:05.074Z,10.30
2022-10-12T01:45:02.234Z,10.40
2022-10-12T01:47:54.234Z,10.50
2022-10-12T01:50:48.382Z,9.70
2022-10-12T01:53:41.655Z,8.90
2022-10-12T01:56:32.486Z,10.50
2022-10-12T01:59:22.763Z,10.30
2022-10-12T02:02:16.129Z,10.30
2022-10-12T02:05:08.876Z,10.97
2022-10-12T02:08:01.375Z,11.47
2022-10-12T02:10:54.799Z,10.63
2022-10-12T02:13:45.665Z,11.80
2022-10-12T02:16:36.250Z,10.07
2022-10-12T02:19:27.237Z,10.47
2022-10-12T02:22:18.284Z,10.33
2022-10-12T02:25:08.949Z,9.60
2022-10-12T02:28:00.836Z,9.97
2022-10-12T02:30:52.479Z,10.70
2022-10-12T02:33:44.561Z,9.93
2022-10-12T02:36:37.894Z,10.10
2022-10-12T02:39:31.080Z,10.20
2022-10-12T02:42:22.655Z,10.17
2022-10-12T02:45:12.681Z,10.23
2022-10-12T02:48:02.190Z,11.10
2022-10-12T02:50:51.802Z,10.30
2022-10-12T02:53:40.842Z,9.87
2022-10-12T02:56:31.002Z,14.03
2022-10-12T02:59:20.351Z,17.37
2022-10-12T03:02:10.741Z,12.87
2022-10-12T03:04:59.577Z,11.13
2022-10-12T03:07:48.379Z,10.77
2022-10-12T03:10:37.210Z,11.33
2022-10-12T03:13:27.391Z,10.90
2022-10-12T03:16:16.243Z,10.80
2022-10-12T03:19:05.055Z,9.73
2022-10-12T03:21:53.908Z,9.73
2022-10-12T03:24:42.771Z,10.37
2022-10-12T03:27:31.582Z,11.30
2022-10-12T03:30:21.789Z,9.90
2022-10-12T03:33:10.630Z,9.53
2022-10-12T03:35:59.705Z,9.90
2022-10-12T03:38:48.528Z,10.27
2022-10-12T03:41:37.363Z,10.90
2022-10-12T03:44:26.162Z,10.50
2022-10-12T03:47:16.563Z,10.03
2022-10-12T03:50:05.589Z,9.57
2022-10-12T03:52:54.410Z,11.53
2022-10-12T03:55:43.235Z,9.17
2022-10-12T03:58:32.058Z,10.80
2022-10-12T04:01:20.895Z,9.70
2022-10-12T04:04:11.442Z,10.33
2022-10-12T04:07:00.289Z,9.80
2022-10-12T04:09:49.484Z,10.07
2022-10-12T04:12:38.592Z,10.73
2022-10-12T04:15:27.415Z,8.77
2022-10-12T04:18:16.314Z,9.97
2022-10-12T04:21:07.978Z,10.43
2022-10-12T04:23:56.814Z,10.40
2022-10-12T04:26:45.662Z,10.90
2022-10-12T04:29:34.568Z,10.60
2022-10-12T04:32:23.466Z,10.00
2022-10-12T04:35:12.565Z,10.10
2022-10-12T04:38:02.771Z,9.00
2022-10-12T04:40:51.683Z,10.80
2022-10-12T04:43:40.512Z,10.17
2022-10-12T04:46:29.366Z,9.87
2022-10-12T04:49:18.177Z,9.83
2022-10-12T04:52:07.084Z,10.93
2022-10-12T04:54:57.267Z,16.30
2022-10-12T04:57:46.082Z,13.43
2022-10-12T05:00:34.911Z,12.07
2022-10-12T05:03:23.827Z,12.63
2022-10-12T05:06:12.670Z,13.50
2022-10-12T05:09:01.511Z,14.90
2022-10-12T05:11:51.700Z,13.90
2022-10-12T05:14:40.500Z,12.57
2022-10-12T05:17:29.399Z,12.63
2022-10-12T05:20:18.353Z,10.03
2022-10-12T05:23:07.193Z,10.40
2022-10-12T05:25:56.662Z,9.80
2022-10-12T05:28:46.939Z,10.67
2022-10-12T05:31:36.270Z,10.37
2022-10-12T05:34:25.097Z,10.10
2022-10-12T05:37:13.935Z,10.00
2022-10-12T05:40:02.770Z,10.80
2022-10-12T05:42:51.674Z,10.43
2022-10-12T05:45:41.853Z,10.30
2022-10-12T05:48:30.673Z,12.10
2022-10-12T05:51:19.544Z,12.20
2022-10-12T05:54:08.454Z,11.33
2022-10-12T05:56:57.581Z,9.87
2022-10-12T05:59:46.392Z,10.13
2022-10-12T06:02:37.326Z,9.97
2022-10-12T06:05:26.410Z,9.53
2022-10-12T06:08:15.371Z,10.40
2022-10-12T06:11:04.494Z,10.70
2022-10-12T06:13:54.255Z,10.50
2022-10-12T06:16:43.095Z,9.53
2022-10-12T06:19:33.306Z,10.30
2022-10-12T06:22:22.190Z,10.77
2022-10-12T06:25:11.486Z,8.47
2022-10-12T06:28:00.305Z,10.13
2022-10-12T06:30:54.280Z,10.23
2022-10-12T06:33:43.177Z,11.03
2022-10-12T06:36:33.374Z,10.90
2022-10-12T06:39:25.381Z,9.53
2022-10-12T06:42:14.187Z,9.20
2022-10-12T06:45:03.854Z,10.47
2022-10-12T06:47:52.665Z,10.53
2022-10-12T06:50:41.470Z,9.93
2022-10-12T06:53:32.947Z,10.40
2022-10-12T06:56:21.797Z,10.73
2022-10-12T06:59:13.015Z,11.97
2022-10-12T07:02:01.939Z,11.80
2022-10-12T07:04:51.404Z,10.80
2022-10-12T07:07:40.309Z,9.20
2022-10-12T07:10:30.534Z,8.27
2022-10-12T07:13:19.359Z,6.40
2022-10-12T07:16:08.438Z,7.37
2022-10-12T07:18:57.252Z,5.00
2022-10-12T07:21:46.203Z,4.77
2022-10-12T07:24:36.655Z,4.47
2022-10-12T07:27:26.864Z,5.27
2022-10-12T07:30:15.703Z,6.70
2022-10-12T07:33:04.625Z,8.67
2022-10-12T07:36:13.386Z,7.73
2022-10-12T07:39:02.539Z,7.20
2022-10-12T07:41:51.533Z,7.70
2022-10-12T07:44:41.740Z,7.40
2022-10-12T07:47:30.573Z,6.17
2022-10-12T07:50:19.412Z,5.63
2022-10-12T07:53:08.258Z,4.13
2022-10-12T07:56:01.782Z,4.63
2022-10-12T07:58:51.251Z,4.57
2022-10-12T08:01:41.469Z,4.60
2022-10-12T08:04:30.351Z,5.40
2022-10-12T08:07:19.194Z,6.13
2022-10-12T08:10:08.357Z,5.07
2022-10-12T08:12:57.181Z,4.80
2022-10-12T08:15:49.921Z,6.03
2022-10-12T08:18:40.131Z,5.27
2022-10-12T08:21:28.954Z,5.50
2022-10-12T08:24:17.833Z,5.30
2022-10-12T08:27:06.670Z,4.97
2022-10-12T08:29:55.466Z,5.60
2022-10-12T08:32:44.313Z,5.63
2022-10-12T08:35:34.493Z,5.43
2022-10-12T08:38:23.355Z,4.97
2022-10-12T08:41:21.194Z,6.47
2022-10-12T08:44:29.057Z,6.47
2022-10-12T08:47:19.332Z,6.32
2022-10-12T08:50:10.814Z,5.78
2022-10-12T08:53:03.557Z,5.32
2022-10-12T08:55:52.661Z,4.25
2022-10-12T08:58:41.607Z,4.80
2022-10-12T09:01:36.751Z,5.13
2022-10-12T09:04:36.015Z,4.47
2022-10-12T09:07:27.923Z,5.10
2022-10-12T09:10:26.026Z,4.67
2022-10-12T09:13:21.347Z,4.77
2022-10-12T09:16:17.728Z,5.33
2022-10-12T09:19:09.795Z,5.45
2022-10-12T09:21:58.838Z,5.45
2022-10-12T09:24:50.821Z,5.55
2022-10-12T09:27:45.075Z,6.13
2022-10-12T09:30:35.322Z,5.70
2022-10-12T09:33:27.650Z,5.35
2022-10-12T09:36:19.129Z,5.22
2022-10-12T09:39:09.337Z,6.35
2022-10-12T09:41:58.227Z,5.40
2022-10-12T09:44:49.997Z,5.93
2022-10-12T09:47:39.899Z,6.25
2022-10-12T09:50:40.849Z,6.32
2022-10-12T09:53:34.080Z,5.70
2022-10-12T09:56:28.938Z,5.10
2022-10-12T09:59:25.407Z,5.57
2022-10-12T10:02:17.372Z,4.88
2022-10-12T10:05:17.062Z,4.35
2022-10-12T10:08:19.134Z,4.90
2022-10-12T10:11:14.759Z,4.15
2022-10-12T10:14:03.895Z,4.57
2022-10-12T10:16:54.676Z,4.18
2022-10-12T10:19:49.904Z,4.90
2022-10-12T10:22:38.871Z,3.97
2022-10-12T10:25:28.078Z,3.33
2022-10-12T10:28:23.365Z,3.00
2022-10-12T10:31:21.504Z,3.40
2022-10-12T10:34:14.913Z,3.00
2022-10-12T10:37:06.290Z,3.22
2022-10-12T10:39:56.274Z,2.20
2022-10-12T10:42:45.138Z,2.70
2022-10-12T10:45:35.304Z,2.92
2022-10-12T10:48:25.240Z,3.55
2022-10-12T10:51:14.109Z,2.85
2022-10-12T10:54:14.669Z,3.47
2022-10-12T10:57:05.877Z,3.08
2022-10-12T10:59:58.048Z,3.05
2022-10-12T11:02:53.971Z,3.00
2022-10-12T11:05:46.327Z,2.90
2022-10-12T11:08:36.852Z,3.10
2022-10-12T11:11:29.703Z,2.72
2022-10-12T11:14:20.105Z,2.78
2022-10-12T11:17:12.572Z,2.78
2022-10-12T11:20:07.233Z,2.67
2022-10-12T11:22:56.720Z,2.63
2022-10-12T11:25:49.817Z,2.50
2022-10-12T11:28:40.567Z,2.40
2022-10-12T11:31:33.033Z,3.13
2022-10-12T11:34:26.030Z,2.42
2022-10-12T11:37:19.988Z,3.55
2022-10-12T11:40:13.995Z,2.60
2022-10-12T11:43:06.737Z,2.60
2022-10-12T11:45:58.867Z,2.90
2022-10-12T11:48:49.337Z,2.72
2022-10-12T11:51:38.246Z,3.08
2022-10-12T11:54:31.001Z,2.33
2022-10-12T11:57:21.883Z,3.05
2022-10-12T12:00:19.416Z,3.17
2022-10-12T12:03:18.611Z,2.85
2022-10-12T12:06:25.158Z,3.08
2022-10-12T12:09:21.303Z,3.00
2022-10-12T12:12:16.096Z,2.60
2022-10-12T12:15:08.881Z,2.97
2022-10-12T12:18:13.506Z,3.00
2022-10-12T12:21:03.849Z,2.33
2022-10-12T12:23:53.501Z,2.70
2022-10-12T12:26:48.903Z,2.35
2022-10-12T12:29:38.221Z,2.55
2022-10-12T12:32:27.895Z,2.60
2022-10-12T12:35:23.639Z,3.13
2022-10-12T12:38:24.736Z,2.17
2022-10-12T12:41:14.182Z,3.38
2022-10-12T12:44:04.130Z,2.55
2022-10-12T12:47:33.005Z,2.88
2022-10-12T12:50:33.685Z,3.05
2022-10-12T12:53:23.705Z,2.58
2022-10-12T12:56:18.566Z,2.58
2022-10-12T12:59:31.178Z,2.47
2022-10-12T13:02:38.547Z,2.63
2022-10-12T13:05:38.861Z,1.92
2022-10-12T13:08:32.249Z,2.78
2022-10-12T13:11:31.349Z,1.40
2022-10-12T13:14:30.114Z,2.35
2022-10-12T13:17:33.074Z,1.60
2022-10-12T13:20:23.692Z,1.98
2022-10-12T13:23:17.778Z,2.50
2022-10-12T13:26:08.210Z,2.05
2022-10-12T13:28:57.488Z,2.10
2022-10-12T13:31:48.093Z,1.88
2022-10-12T13:34:38.565Z,2.10
2022-10-12T13:37:32.077Z,2.38
2022-10-12T13:40:33.383Z,2.83
2022-10-12T13:43:27.530Z,2.85
2022-10-12T13:46:35.790Z,2.47
2022-10-12T13:49:26.118Z,2.78
2022-10-12T13:52:21.648Z,3.00
2022-10-12T13:55:16.750Z,2.72
2022-10-12T13:58:21.259Z,3.15
2022-10-12T14:01:11.742Z,1.93
2022-10-12T14:04:04.366Z,2.50
2022-10-12T14:06:56.964Z,2.20
2022-10-12T14:09:46.894Z,2.10
2022-10-12T14:12:37.081Z,2.17
2022-10-12T14:15:29.323Z,2.17
2022-10-12T14:18:34.810Z,1.97
2022-10-12T14:21:25.586Z,1.90
2022-10-12T14:24:18.553Z,2.20
2022-10-12T14:27:08.387Z,2.00
2022-10-12T14:29:59.004Z,2.30
2022-10-12T14:32:49.783Z,2.10
2022-10-12T14:35:42.014Z,2.03
2022-10-12T14:38:41.017Z,2.47
2022-10-12T14:41:33.362Z,2.37
2022-10-12T14:44:23.183Z,2.53
2022-10-12T14:47:14.209Z,2.27
2022-10-12T14:50:08.202Z,2.70
2022-10-12T14:52:58.521Z,2.60
2022-10-12T14:55:50.825Z,2.30
2022-10-12T14:58:42.656Z,2.47
2022-10-12T15:01:31.781Z,2.40
2022-10-12T15:04:20.655Z,2.60
2022-10-12T15:07:15.324Z,2.67
2022-10-12T15:10:04.581Z,2.23
2022-10-12T15:12:53.747Z,2.00
2022-10-12T15:15:44.533Z,2.55
2022-10-12T15:18:33.413Z,2.88
2022-10-12T15:21:22.554Z,2.38
2022-10-12T15:24:16.217Z,2.60
2022-10-12T15:27:05.069Z,2.28
2022-10-12T15:29:54.024Z,2.40
2022-10-12T15:32:42.910Z,2.67
2022-10-12T15:35:33.839Z,2.13
2022-10-12T15:38:22.842Z,2.47
2022-10-12T15:41:17.622Z,1.90
2022-10-12T15:44:06.560Z,2.57
2022-10-12T15:46:55.770Z,2.10
2022-10-12T15:49:44.573Z,2.13
2022-10-12T15:52:33.395Z,3.50
2022-10-12T15:55:23.486Z,1.80
2022-10-12T15:58:13.736Z,2.90
2022-10-12T16:01:02.693Z,2.30
2022-10-12T16:03:51.833Z,2.40
2022-10-12T16:06:40.784Z,2.80
2022-10-12T16:09:29.688Z,2.70
2022-10-12T16:12:18.599Z,3.10
2022-10-12T16:15:09.359Z,2.57
2022-10-12T16:17:58.228Z,3.27
2022-10-12T16:20:53.321Z,3.03
2022-10-12T16:23:42.815Z,4.70
2022-10-12T16:26:31.639Z,4.97
2022-10-12T16:29:20.468Z,4.70
2022-10-12T16:32:10.671Z,4.30
2022-10-12T16:34:59.498Z,4.40
2022-10-12T16:37:48.792Z,4.30
2022-10-12T16:40:37.845Z,3.90
2022-10-12T16:43:26.749Z,5.47
2022-10-12T16:46:15.584Z,9.13
2022-10-12T16:49:05.798Z,4.90
2022-10-12T16:51:54.659Z,5.00
2022-10-12T16:54:43.550Z,5.20
2022-10-12T16:57:32.541Z,5.10
2022-10-12T17:00:21.624Z,6.27
2022-10-12T17:03:13.776Z,5.70
2022-10-12T17:06:04.003Z,5.80
2022-10-12T17:08:52.816Z,5.17
2022-10-12T17:11:42.134Z,6.20
2022-10-12T17:14:30.964Z,5.93
2022-10-12T17:17:19.972Z,6.80
2022-10-12T17:20:09.193Z,6.30
2022-10-12T17:22:59.398Z,6.97
2022-10-12T17:25:49.078Z,6.10
2022-10-12T17:28:38.505Z,7.17
2022-10-12T17:31:28.597Z,6.70
2022-10-12T17:34:19.205Z,6.60
2022-10-12T17:37:10.778Z,7.93
2022-10-12T17:40:01.098Z,7.00
2022-10-12T17:42:49.951Z,7.03
2022-10-12T17:45:40.645Z,7.20
2022-10-12T17:48:29.534Z,8.00
2022-10-12T17:51:18.444Z,8.00
2022-10-12T17:54:07.362Z,9.00
2022-10-12T17:56:57.934Z,9.80
2022-10-12T17:59:46.738Z,10.30
2022-10-12T18:02:35.558Z,10.37
2022-10-12T18:05:24.385Z,12.37
2022-10-12T18:08:13.238Z,11.77
2022-10-12T18:11:02.408Z,12.23
2022-10-12T18:13:53.150Z,12.23
2022-10-12T18:16:42.301Z,12.13
2022-10-12T18:19:32.447Z,12.40
2022-10-12T18:22:21.326Z,11.47
2022-10-12T18:25:10.235Z,12.80
2022-10-12T18:27:59.084Z,12.43
2022-10-12T18:30:50.112Z,11.40
2022-10-12T18:33:38.900Z,9.37
2022-10-12T18:36:28.577Z,9.80
2022-10-12T18:39:17.521Z,10.10
2022-10-12T18:42:06.475Z,9.70
2022-10-12T18:44:55.306Z,10.87
2022-10-12T18:47:45.669Z,10.37
2022-10-12T18:50:35.728Z,10.20
2022-10-12T18:53:27.129Z,10.93
2022-10-12T18:56:16.343Z,11.20
2022-10-12T18:59:05.613Z,11.50
2022-10-12T19:01:54.891Z,11.20
2022-10-12T19:04:45.297Z,11.23
2022-10-12T19:07:36.084Z,11.93
2022-10-12T19:10:24.921Z,12.80
2022-10-12T19:13:13.759Z,13.20
2022-10-12T19:16:09.571Z,11.83
2022-10-12T19:18:59.342Z,13.07
2022-10-12T19:21:49.919Z,12.20
2022-10-12T19:24:38.779Z,12.30
2022-10-12T19:27:27.658Z,13.03
2022-10-12T19:30:16.660Z,13.60
2022-10-12T19:33:05.517Z,14.33
2022-10-12T19:35:54.833Z,14.20
2022-10-12T19:38:45.828Z,14.50
2022-10-12T19:41:35.039Z,13.17
2022-10-12T19:44:23.867Z,13.10
2022-10-12T19:47:12.700Z,13.27
2022-10-12T19:50:01.886Z,15.17
2022-10-12T19:52:50.745Z,15.37
2022-10-12T19:55:40.938Z,18.33
2022-10-12T19:58:29.909Z,16.30
2022-10-12T20:01:20.499Z,16.93
2022-10-12T20:04:11.767Z,17.20
2022-10-12T20:07:00.673Z,15.37
2022-10-12T20:09:49.701Z,13.97
2022-10-12T20:12:40.019Z,16.00
2022-10-12T20:15:28.926Z,13.70
2022-10-12T20:18:17.847Z,16.77
2022-10-12T20:21:07.109Z,19.77
2022-10-12T20:23:55.986Z,21.00
2022-10-12T20:26:44.931Z,23.00
2022-10-12T20:29:35.215Z,21.47
2022-10-12T20:32:24.045Z,16.90
2022-10-12T20:35:12.890Z,13.53
2022-10-12T20:38:01.850Z,12.87
2022-10-12T20:40:51.178Z,12.70
2022-10-12T20:43:40.639Z,14.63
2022-10-12T20:46:31.907Z,13.30
2022-10-12T20:49:20.890Z,13.07
2022-10-12T20:52:09.769Z,12.27
2022-10-12T20:54:58.574Z,13.63
2022-10-12T20:57:47.412Z,13.80
2022-10-12T21:00:36.509Z,13.37
2022-10-12T21:03:26.764Z,12.97
2022-10-12T21:06:17.185Z,14.53
2022-10-12T21:09:06.711Z,15.27
2022-10-12T21:11:55.624Z,16.23
2022-10-12T21:14:44.449Z,14.73
2022-10-12T21:17:33.361Z,14.67
2022-10-12T21:20:23.527Z,14.40
2022-10-12T21:23:12.392Z,13.80
2022-10-12T21:26:01.191Z,13.47
2022-10-12T21:28:50.074Z,13.97
2022-10-12T21:31:38.967Z,13.70
2022-10-12T21:34:27.985Z,13.53
2022-10-12T21:37:18.205Z,12.80
2022-10-12T21:40:08.941Z,12.10
2022-10-12T21:42:57.797Z,12.70
2022-10-12T21:45:46.592Z,12.10
2022-10-12T21:48:35.572Z,12.10
2022-10-12T21:51:25.098Z,12.50
2022-10-12T21:54:15.269Z,12.50
2022-10-12T21:57:04.184Z,12.33
2022-10-12T21:59:53.438Z,11.40
2022-10-12T22:02:42.330Z,12.30
2022-10-12T22:05:31.182Z,11.80
2022-10-12T22:08:20.056Z,12.50
2022-10-12T22:11:11.497Z,11.37
2022-10-12T22:14:00.957Z,12.23
2022-10-12T22:16:49.827Z,11.60
2022-10-12T22:19:38.744Z,12.53
2022-10-12T22:22:27.578Z,11.83
2022-10-12T22:25:16.363Z,12.00
2022-10-12T22:28:06.645Z,12.50
2022-10-12T22:30:55.527Z,11.37
2022-10-12T22:33:44.437Z,12.50
2022-10-12T22:36:33.370Z,12.10
2022-10-12T22:39:22.273Z,11.53
2022-10-12T22:42:11.109Z,12.53
2022-10-12T22:45:01.303Z,11.50
2022-10-12T22:47:50.199Z,11.10
2022-10-12T22:50:39.050Z,12.20
2022-10-12T22:53:28.241Z,12.10
2022-10-12T22:56:18.114Z,12.60
2022-10-12T22:59:07.470Z,11.57
2022-10-12T23:01:57.650Z,12.40
2022-10-12T23:04:46.582Z,12.03
2022-10-12T23:07:35.518Z,12.73
2022-10-12T23:10:24.357Z,13.30
2022-10-12T23:13:13.196Z,12.20
2022-10-12T23:16:05.398Z,11.43
2022-10-12T23:18:59.297Z,11.90
2022-10-12T23:21:48.645Z,11.90
2022-10-12T23:24:37.803Z,13.17
2022-10-12T23:27:26.767Z,12.87
2022-10-12T23:30:15.730Z,14.60
2022-10-12T23:33:04.582Z,14.43
2022-10-12T23:35:58.541Z,14.23
2022-10-12T23:38:47.474Z,13.27
2022-10-12T23:41:36.353Z,12.80
2022-10-12T23:44:25.232Z,13.50
2022-10-12T23:47:14.093Z,14.13
2022-10-12T23:50:02.938Z,13.77
2022-10-12T23:52:53.356Z,14.23
2022-10-12T23:55:42.341Z,15.03
2022-10-12T23:58:31.255Z,18.90
